sensor_id;sensor_type;location;lat;lon;timestamp;pressure;altitude;pressure_sealevel;temperature;humidity
43125;BME280;49182;50.788;7.318;2023-02-18T00:00:07;101607.22;;;11.55;84.67
43125;BME280;49182;50.788;7.318;2023-02-18T00:02:34;101619.38;;;11.58;84.83
43125;BME280;49182;50.788;7.318;2023-02-18T00:05:01;101614.31;;;11.55;85.01
43125;BME280;49182;50.788;7.318;2023-02-18T00:07:32;101554.47;;;11.19;84.40
43125;BME280;49182;50.788;7.318;2023-02-18T00:09:59;101613.13;;;11.48;84.75
43125;BME280;49182;50.788;7.318;2023-02-18T00:12:26;101614.78;;;11.49;85.33
43125;BME280;49182;50.788;7.318;2023-02-18T00:14:52;101613.81;;;11.50;85.06
43125;BME280;49182;50.788;7.318;2023-02-18T00:17:19;101604.44;;;11.46;85.02
43125;BME280;49182;50.788;7.318;2023-02-18T00:19:46;101619.84;;;11.52;84.97
43125;BME280;49182;50.788;7.318;2023-02-18T00:22:12;101617.66;;;11.46;85.77
43125;BME280;49182;50.788;7.318;2023-02-18T00:24:40;101607.00;;;11.47;85.59
43125;BME280;49182;50.788;7.318;2023-02-18T00:27:07;101579.28;;;11.29;85.79
43125;BME280;49182;50.788;7.318;2023-02-18T00:29:33;101488.50;;;10.71;85.71
43125;BME280;49182;50.788;7.318;2023-02-18T00:32:00;101611.28;;;11.48;86.00
43125;BME280;49182;50.788;7.318;2023-02-18T00:34:28;101590.09;;;11.37;85.71
43125;BME280;49182;50.788;7.318;2023-02-18T00:36:55;101602.66;;;11.46;86.30
43125;BME280;49182;50.788;7.318;2023-02-18T00:39:21;101582.06;;;11.39;86.12
43125;BME280;49182;50.788;7.318;2023-02-18T00:41:49;101595.41;;;11.48;85.91
43125;BME280;49182;50.788;7.318;2023-02-18T00:44:16;101593.75;;;11.47;86.07
43125;BME280;49182;50.788;7.318;2023-02-18T00:46:43;101596.25;;;11.49;86.21
43125;BME280;49182;50.788;7.318;2023-02-18T00:49:09;101598.22;;;11.47;86.06
43125;BME280;49182;50.788;7.318;2023-02-18T00:51:36;101599.16;;;11.46;86.14
43125;BME280;49182;50.788;7.318;2023-02-18T00:54:03;101574.88;;;11.41;86.37
43125;BME280;49182;50.788;7.318;2023-02-18T00:56:30;101533.81;;;11.24;86.22
43125;BME280;49182;50.788;7.318;2023-02-18T00:58:58;101563.19;;;11.43;86.26
43125;BME280;49182;50.788;7.318;2023-02-18T01:01:25;101556.22;;;11.42;86.78
43125;BME280;49182;50.788;7.318;2023-02-18T01:03:51;101566.94;;;11.41;86.89
43125;BME280;49182;50.788;7.318;2023-02-18T01:06:18;101556.75;;;11.47;86.21
43125;BME280;49182;50.788;7.318;2023-02-18T01:08:47;101560.34;;;11.46;86.30
43125;BME280;49182;50.788;7.318;2023-02-18T01:11:14;101570.44;;;11.41;86.77
43125;BME280;49182;50.788;7.318;2023-02-18T01:13:41;101566.78;;;11.42;86.70
43125;BME280;49182;50.788;7.318;2023-02-18T01:16:09;101564.41;;;11.39;86.72
43125;BME280;49182;50.788;7.318;2023-02-18T01:18:37;101558.00;;;11.30;87.50
43125;BME280;49182;50.788;7.318;2023-02-18T01:21:05;101563.81;;;11.35;87.00
43125;BME280;49182;50.788;7.318;2023-02-18T01:23:31;101557.22;;;11.41;86.98
43125;BME280;49182;50.788;7.318;2023-02-18T01:25:58;101562.81;;;11.36;87.20
43125;BME280;49182;50.788;7.318;2023-02-18T01:28:25;101439.22;;;10.59;87.06
43125;BME280;49182;50.788;7.318;2023-02-18T01:30:52;101548.75;;;11.36;86.89
43125;BME280;49182;50.788;7.318;2023-02-18T01:33:20;101540.81;;;11.36;86.58
43125;BME280;49182;50.788;7.318;2023-02-18T01:35:48;101557.66;;;11.35;86.85
43125;BME280;49182;50.788;7.318;2023-02-18T01:38:15;101551.28;;;11.38;87.00
43125;BME280;49182;50.788;7.318;2023-02-18T01:40:45;101554.28;;;11.33;87.02
43125;BME280;49182;50.788;7.318;2023-02-18T01:43:13;101548.66;;;11.38;86.65
43125;BME280;49182;50.788;7.318;2023-02-18T01:45:56;101551.28;;;11.38;86.58
43125;BME280;49182;50.788;7.318;2023-02-18T01:48:25;101549.97;;;11.32;86.92
43125;BME280;49182;50.788;7.318;2023-02-18T01:50:56;101541.28;;;11.30;87.42
43125;BME280;49182;50.788;7.318;2023-02-18T01:53:27;101538.03;;;11.26;87.83
43125;BME280;49182;50.788;7.318;2023-02-18T01:55:54;101516.97;;;11.14;87.98
43125;BME280;49182;50.788;7.318;2023-02-18T01:58:21;101528.06;;;11.30;87.56
43125;BME280;49182;50.788;7.318;2023-02-18T02:00:48;101536.97;;;11.29;87.63
43125;BME280;49182;50.788;7.318;2023-02-18T02:03:15;101542.88;;;11.32;87.63
43125;BME280;49182;50.788;7.318;2023-02-18T02:05:43;101542.75;;;11.34;87.80
43125;BME280;49182;50.788;7.318;2023-02-18T02:08:15;101536.28;;;11.38;87.62
43125;BME280;49182;50.788;7.318;2023-02-18T02:10:53;101526.66;;;11.37;87.70
43125;BME280;49182;50.788;7.318;2023-02-18T02:13:28;101487.56;;;11.18;87.87
43125;BME280;49182;50.788;7.318;2023-02-18T02:16:03;101519.19;;;11.42;87.69
43125;BME280;49182;50.788;7.318;2023-02-18T02:18:45;101515.84;;;11.40;88.30
43125;BME280;49182;50.788;7.318;2023-02-18T02:27:37;101501.06;;;11.38;89.46
43125;BME280;49182;50.788;7.318;2023-02-18T02:30:41;101499.13;;;11.28;90.84
43125;BME280;49182;50.788;7.318;2023-02-18T02:33:33;101489.63;;;11.26;91.47
43125;BME280;49182;50.788;7.318;2023-02-18T02:36:08;101475.66;;;11.13;92.52
43125;BME280;49182;50.788;7.318;2023-02-18T02:38:43;101492.59;;;11.10;94.08
43125;BME280;49182;50.788;7.318;2023-02-18T02:41:23;101461.06;;;10.96;93.68
43125;BME280;49182;50.788;7.318;2023-02-18T02:44:01;101476.13;;;11.18;93.40
43125;BME280;49182;50.788;7.318;2023-02-18T02:46:35;101467.34;;;11.17;93.29
43125;BME280;49182;50.788;7.318;2023-02-18T02:49:09;101473.84;;;11.13;93.70
43125;BME280;49182;50.788;7.318;2023-02-18T02:51:45;101465.19;;;11.11;93.91
43125;BME280;49182;50.788;7.318;2023-02-18T02:54:17;101472.28;;;11.11;94.10
43125;BME280;49182;50.788;7.318;2023-02-18T02:56:44;101469.50;;;11.12;93.78
43125;BME280;49182;50.788;7.318;2023-02-18T02:59:15;101461.72;;;11.11;93.58
43125;BME280;49182;50.788;7.318;2023-02-18T03:01:57;101460.41;;;11.16;93.21
43125;BME280;49182;50.788;7.318;2023-02-18T03:04:42;101466.41;;;11.18;93.45
43125;BME280;49182;50.788;7.318;2023-02-18T03:07:27;101458.38;;;11.20;92.99
43125;BME280;49182;50.788;7.318;2023-02-18T03:10:16;101440.44;;;11.12;92.83
43125;BME280;49182;50.788;7.318;2023-02-18T03:12:48;101450.31;;;11.21;92.65
43125;BME280;49182;50.788;7.318;2023-02-18T03:15:23;101441.56;;;11.21;93.00
43125;BME280;49182;50.788;7.318;2023-02-18T03:17:57;101442.28;;;11.23;92.71
43125;BME280;49182;50.788;7.318;2023-02-18T03:20:33;101438.66;;;11.24;92.53
43125;BME280;49182;50.788;7.318;2023-02-18T03:23:06;101428.81;;;11.26;92.29
43125;BME280;49182;50.788;7.318;2023-02-18T03:25:36;101428.81;;;11.26;92.40
43125;BME280;49182;50.788;7.318;2023-02-18T03:28:06;101420.66;;;11.29;92.25
43125;BME280;49182;50.788;7.318;2023-02-18T03:30:37;101421.72;;;11.26;92.20
43125;BME280;49182;50.788;7.318;2023-02-18T03:33:08;101411.25;;;11.25;92.22
43125;BME280;49182;50.788;7.318;2023-02-18T03:35:37;101408.63;;;11.25;92.25
43125;BME280;49182;50.788;7.318;2023-02-18T03:38:09;101409.56;;;11.24;92.20
43125;BME280;49182;50.788;7.318;2023-02-18T03:40:37;101397.34;;;11.23;92.26
43125;BME280;49182;50.788;7.318;2023-02-18T03:43:05;101404.44;;;11.22;92.14
43125;BME280;49182;50.788;7.318;2023-02-18T03:45:32;101403.69;;;11.20;92.22
43125;BME280;49182;50.788;7.318;2023-02-18T03:47:59;101379.28;;;11.06;92.42
43125;BME280;49182;50.788;7.318;2023-02-18T03:50:26;101390.22;;;11.23;92.10
43125;BME280;49182;50.788;7.318;2023-02-18T03:52:53;101408.72;;;11.23;92.09
43125;BME280;49182;50.788;7.318;2023-02-18T03:55:21;101402.75;;;11.21;92.34
43125;BME280;49182;50.788;7.318;2023-02-18T03:57:47;101405.75;;;11.17;92.53
43125;BME280;49182;50.788;7.318;2023-02-18T04:00:14;101404.75;;;11.18;92.33
43125;BME280;49182;50.788;7.318;2023-02-18T04:02:41;101411.03;;;11.17;92.62
43125;BME280;49182;50.788;7.318;2023-02-18T04:05:08;101394.28;;;11.05;92.84
43125;BME280;49182;50.788;7.318;2023-02-18T04:07:35;101404.28;;;11.02;93.11
43125;BME280;49182;50.788;7.318;2023-02-18T04:10:02;101399.22;;;10.99;93.14
43125;BME280;49182;50.788;7.318;2023-02-18T04:12:31;101404.88;;;11.05;93.28
43125;BME280;49182;50.788;7.318;2023-02-18T04:14:57;101393.94;;;10.99;93.40
43125;BME280;49182;50.788;7.318;2023-02-18T04:17:24;101391.06;;;11.02;93.33
43125;BME280;49182;50.788;7.318;2023-02-18T04:19:51;101397.09;;;11.04;93.24
43125;BME280;49182;50.788;7.318;2023-02-18T04:22:18;101396.34;;;11.02;93.00
43125;BME280;49182;50.788;7.318;2023-02-18T04:24:45;101368.44;;;10.86;93.31
43125;BME280;49182;50.788;7.318;2023-02-18T04:27:11;101386.00;;;10.99;93.23
43125;BME280;49182;50.788;7.318;2023-02-18T04:29:39;101384.56;;;10.94;93.07
43125;BME280;49182;50.788;7.318;2023-02-18T04:32:06;101356.22;;;10.85;92.33
43125;BME280;49182;50.788;7.318;2023-02-18T04:34:33;101337.47;;;10.77;92.23
43125;BME280;49182;50.788;7.318;2023-02-18T04:37:00;101374.25;;;11.03;92.01
43125;BME280;49182;50.788;7.318;2023-02-18T04:39:26;101373.53;;;11.01;91.66
43125;BME280;49182;50.788;7.318;2023-02-18T04:41:53;101355.59;;;10.93;91.27
43125;BME280;49182;50.788;7.318;2023-02-18T04:44:20;101317.53;;;10.73;90.96
43125;BME280;49182;50.788;7.318;2023-02-18T04:46:48;101362.34;;;10.97;90.88
43125;BME280;49182;50.788;7.318;2023-02-18T04:49:14;101333.03;;;10.89;90.68
43125;BME280;49182;50.788;7.318;2023-02-18T04:51:41;101366.59;;;11.11;90.96
43125;BME280;49182;50.788;7.318;2023-02-18T04:54:08;101361.78;;;11.16;90.56
43125;BME280;49182;50.788;7.318;2023-02-18T04:56:35;101356.97;;;11.10;90.46
43125;BME280;49182;50.788;7.318;2023-02-18T04:59:01;101352.38;;;11.12;90.70
43125;BME280;49182;50.788;7.318;2023-02-18T05:01:28;101337.72;;;11.08;90.43
43125;BME280;49182;50.788;7.318;2023-02-18T05:03:56;101343.59;;;11.11;90.15
43125;BME280;49182;50.788;7.318;2023-02-18T05:06:23;101334.88;;;11.11;90.78
43125;BME280;49182;50.788;7.318;2023-02-18T05:08:50;101346.03;;;11.14;90.32
43125;BME280;49182;50.788;7.318;2023-02-18T05:11:16;101337.13;;;11.15;89.81
43125;BME280;49182;50.788;7.318;2023-02-18T05:13:43;101342.06;;;11.20;90.25
43125;BME280;49182;50.788;7.318;2023-02-18T05:16:10;101331.50;;;11.09;89.43
43125;BME280;49182;50.788;7.318;2023-02-18T05:18:37;101319.72;;;11.13;88.93
43125;BME280;49182;50.788;7.318;2023-02-18T05:21:05;101338.56;;;11.30;89.18
43125;BME280;49182;50.788;7.318;2023-02-18T05:23:32;101341.34;;;11.29;89.08
43125;BME280;49182;50.788;7.318;2023-02-18T05:25:59;101335.81;;;11.32;89.06
43125;BME280;49182;50.788;7.318;2023-02-18T05:28:25;101323.06;;;11.37;88.42
43125;BME280;49182;50.788;7.318;2023-02-18T05:30:52;101324.50;;;11.30;88.94
43125;BME280;49182;50.788;7.318;2023-02-18T05:33:19;101317.06;;;11.24;90.06
43125;BME280;49182;50.788;7.318;2023-02-18T05:35:47;101300.72;;;11.19;90.05
43125;BME280;49182;50.788;7.318;2023-02-18T05:38:15;101305.28;;;11.28;89.76
43125;BME280;49182;50.788;7.318;2023-02-18T05:40:41;101309.97;;;11.24;90.72
43125;BME280;49182;50.788;7.318;2023-02-18T05:43:08;101304.69;;;11.13;90.79
43125;BME280;49182;50.788;7.318;2023-02-18T05:45:35;101308.44;;;11.22;90.52
43125;BME280;49182;50.788;7.318;2023-02-18T05:48:02;101269.25;;;10.93;90.05
43125;BME280;49182;50.788;7.318;2023-02-18T05:50:28;101306.00;;;11.19;88.96
43125;BME280;49182;50.788;7.318;2023-02-18T05:52:55;101313.34;;;11.26;88.85
43125;BME280;49182;50.788;7.318;2023-02-18T05:55:23;101308.16;;;11.25;87.41
43125;BME280;49182;50.788;7.318;2023-02-18T05:57:50;101303.25;;;11.31;87.32
43125;BME280;49182;50.788;7.318;2023-02-18T06:00:17;101236.50;;;10.96;86.44
43125;BME280;49182;50.788;7.318;2023-02-18T06:02:44;101298.41;;;11.36;86.47
43125;BME280;49182;50.788;7.318;2023-02-18T06:05:11;101298.41;;;11.36;86.35
43125;BME280;49182;50.788;7.318;2023-02-18T06:07:37;101292.56;;;11.33;86.08
43125;BME280;49182;50.788;7.318;2023-02-18T06:10:05;101292.91;;;11.40;85.97
43125;BME280;49182;50.788;7.318;2023-02-18T06:12:33;101301.22;;;11.35;84.85
43125;BME280;49182;50.788;7.318;2023-02-18T06:15:00;101284.00;;;11.41;84.51
43125;BME280;49182;50.788;7.318;2023-02-18T06:17:26;101278.56;;;11.42;84.84
43125;BME280;49182;50.788;7.318;2023-02-18T06:19:53;101254.47;;;11.13;84.62
43125;BME280;49182;50.788;7.318;2023-02-18T06:22:20;101280.75;;;11.37;84.83
43125;BME280;49182;50.788;7.318;2023-02-18T06:24:46;101273.78;;;11.36;85.30
43125;BME280;49182;50.788;7.318;2023-02-18T06:27:13;101269.84;;;11.42;84.91
43125;BME280;49182;50.788;7.318;2023-02-18T06:29:41;101266.53;;;11.49;84.32
43125;BME280;49182;50.788;7.318;2023-02-18T06:32:08;101257.53;;;11.52;83.61
43125;BME280;49182;50.788;7.318;2023-02-18T06:34:34;101263.91;;;11.49;83.15
43125;BME280;49182;50.788;7.318;2023-02-18T06:37:01;101267.03;;;11.43;82.52
43125;BME280;49182;50.788;7.318;2023-02-18T06:39:28;101266.47;;;11.40;82.99
43125;BME280;49182;50.788;7.318;2023-02-18T06:41:54;101243.88;;;11.35;82.64
43125;BME280;49182;50.788;7.318;2023-02-18T06:44:21;101259.44;;;11.50;81.97
43125;BME280;49182;50.788;7.318;2023-02-18T06:46:49;101263.41;;;11.55;81.97
43125;BME280;49182;50.788;7.318;2023-02-18T06:49:16;101269.81;;;11.53;81.83
43125;BME280;49182;50.788;7.318;2023-02-18T06:51:42;101252.47;;;11.49;81.44
43125;BME280;49182;50.788;7.318;2023-02-18T06:54:09;101208.22;;;11.19;81.56
43125;BME280;49182;50.788;7.318;2023-02-18T06:56:37;101275.22;;;11.51;80.39
43125;BME280;49182;50.788;7.318;2023-02-18T06:59:03;101261.88;;;11.53;81.24
43125;BME280;49182;50.788;7.318;2023-02-18T07:01:30;101281.72;;;11.47;80.63
43125;BME280;49182;50.788;7.318;2023-02-18T07:03:58;101266.53;;;11.49;80.59
43125;BME280;49182;50.788;7.318;2023-02-18T07:06:25;101255.63;;;11.43;80.56
43125;BME280;49182;50.788;7.318;2023-02-18T07:08:51;101253.97;;;11.42;80.61
43125;BME280;49182;50.788;7.318;2023-02-18T07:11:18;101252.38;;;11.50;80.85
43125;BME280;49182;50.788;7.318;2023-02-18T07:13:44;101253.09;;;11.52;79.87
43125;BME280;49182;50.788;7.318;2023-02-18T07:16:11;101264.84;;;11.48;79.20
43125;BME280;49182;50.788;7.318;2023-02-18T07:18:38;101252.13;;;11.53;79.54
43125;BME280;49182;50.788;7.318;2023-02-18T07:21:06;101257.16;;;11.56;78.98
43125;BME280;49182;50.788;7.318;2023-02-18T07:23:32;101255.72;;;11.52;79.05
43125;BME280;49182;50.788;7.318;2023-02-18T07:26:04;101266.50;;;11.60;79.15
43125;BME280;49182;50.788;7.318;2023-02-18T07:28:31;101273.63;;;11.49;79.60
43125;BME280;49182;50.788;7.318;2023-02-18T07:30:58;101263.66;;;11.52;78.67
43125;BME280;49182;50.788;7.318;2023-02-18T07:33:25;101275.66;;;11.56;78.76
43125;BME280;49182;50.788;7.318;2023-02-18T07:35:53;101282.38;;;11.60;78.67
43125;BME280;49182;50.788;7.318;2023-02-18T07:38:21;101278.56;;;11.53;78.84
43125;BME280;49182;50.788;7.318;2023-02-18T07:40:48;101299.00;;;11.51;78.14
43125;BME280;49182;50.788;7.318;2023-02-18T07:43:15;101292.53;;;11.44;77.68
43125;BME280;49182;50.788;7.318;2023-02-18T07:45:42;101301.53;;;11.53;78.12
43125;BME280;49182;50.788;7.318;2023-02-18T07:48:09;101310.16;;;11.55;78.34
43125;BME280;49182;50.788;7.318;2023-02-18T07:50:38;101259.25;;;11.30;78.29
43125;BME280;49182;50.788;7.318;2023-02-18T07:53:05;101284.13;;;11.39;77.47
43125;BME280;49182;50.788;7.318;2023-02-18T07:55:33;101285.50;;;11.65;77.78
43125;BME280;49182;50.788;7.318;2023-02-18T07:58:00;101301.38;;;11.65;77.34
43125;BME280;49182;50.788;7.318;2023-02-18T08:00:26;101302.22;;;11.66;77.50
43125;BME280;49182;50.788;7.318;2023-02-18T08:02:53;101258.03;;;11.46;78.10
43125;BME280;49182;50.788;7.318;2023-02-18T08:05:20;101297.28;;;11.61;77.89
43125;BME280;49182;50.788;7.318;2023-02-18T08:07:47;101282.25;;;11.62;77.85
43125;BME280;49182;50.788;7.318;2023-02-18T08:10:13;101286.84;;;11.60;77.86
43125;BME280;49182;50.788;7.318;2023-02-18T08:12:41;101285.41;;;11.56;77.55
43125;BME280;49182;50.788;7.318;2023-02-18T08:15:08;101299.59;;;11.55;77.09
43125;BME280;49182;50.788;7.318;2023-02-18T08:17:35;101198.41;;;10.99;76.92
43125;BME280;49182;50.788;7.318;2023-02-18T08:20:02;101263.56;;;11.43;77.28
43125;BME280;49182;50.788;7.318;2023-02-18T08:22:29;101296.59;;;11.59;77.29
43125;BME280;49182;50.788;7.318;2023-02-18T08:24:56;101303.53;;;11.60;76.49
43125;BME280;49182;50.788;7.318;2023-02-18T08:27:23;101304.53;;;11.48;76.94
43125;BME280;49182;50.788;7.318;2023-02-18T08:29:51;101314.28;;;11.48;76.01
43125;BME280;49182;50.788;7.318;2023-02-18T08:32:18;101300.47;;;11.33;76.71
43125;BME280;49182;50.788;7.318;2023-02-18T08:34:45;101329.06;;;11.50;76.93
43125;BME280;49182;50.788;7.318;2023-02-18T08:37:11;101336.06;;;11.40;79.93
43125;BME280;49182;50.788;7.318;2023-02-18T08:39:38;101332.09;;;11.34;80.65
43125;BME280;49182;50.788;7.318;2023-02-18T08:42:06;101313.22;;;11.06;81.37
43125;BME280;49182;50.788;7.318;2023-02-18T08:44:32;101335.31;;;10.93;83.54
43125;BME280;49182;50.788;7.318;2023-02-18T08:47:00;101207.22;;;10.08;84.16
43125;BME280;49182;50.788;7.318;2023-02-18T08:49:27;101360.19;;;10.91;84.84
43125;BME280;49182;50.788;7.318;2023-02-18T08:51:54;101362.94;;;10.89;85.71
43125;BME280;49182;50.788;7.318;2023-02-18T08:54:21;101361.03;;;10.91;86.45
43125;BME280;49182;50.788;7.318;2023-02-18T08:56:47;101372.19;;;10.84;86.22
43125;BME280;49182;50.788;7.318;2023-02-18T08:59:14;101366.41;;;10.79;85.61
43125;BME280;49182;50.788;7.318;2023-02-18T09:01:40;101374.66;;;10.74;84.72
43125;BME280;49182;50.788;7.318;2023-02-18T09:04:08;101374.81;;;10.73;84.26
43125;BME280;49182;50.788;7.318;2023-02-18T09:06:36;101365.56;;;10.78;83.60
43125;BME280;49182;50.788;7.318;2023-02-18T09:09:03;101356.06;;;10.76;82.31
43125;BME280;49182;50.788;7.318;2023-02-18T09:11:30;101359.09;;;10.93;81.07
43125;BME280;49182;50.788;7.318;2023-02-18T09:13:57;101364.25;;;10.73;78.86
43125;BME280;49182;50.788;7.318;2023-02-18T09:16:23;101380.13;;;10.95;79.51
43125;BME280;49182;50.788;7.318;2023-02-18T09:18:51;101362.84;;;11.02;78.25
43125;BME280;49182;50.788;7.318;2023-02-18T09:21:19;101366.06;;;10.94;78.44
43125;BME280;49182;50.788;7.318;2023-02-18T09:23:46;101370.50;;;11.05;79.15
43125;BME280;49182;50.788;7.318;2023-02-18T09:26:14;101365.00;;;11.08;78.20
43125;BME280;49182;50.788;7.318;2023-02-18T09:28:41;101377.97;;;11.00;78.01
43125;BME280;49182;50.788;7.318;2023-02-18T09:31:11;101345.03;;;10.82;76.84
43125;BME280;49182;50.788;7.318;2023-02-18T09:33:41;101367.28;;;10.90;76.42
43125;BME280;49182;50.788;7.318;2023-02-18T09:36:11;101351.63;;;10.87;76.22
43125;BME280;49182;50.788;7.318;2023-02-18T09:38:39;101346.97;;;10.91;76.95
43125;BME280;49182;50.788;7.318;2023-02-18T09:41:09;101331.97;;;10.91;75.45
43125;BME280;49182;50.788;7.318;2023-02-18T09:43:42;101344.72;;;10.98;76.08
43125;BME280;49182;50.788;7.318;2023-02-18T09:46:16;101341.34;;;10.95;75.57
43125;BME280;49182;50.788;7.318;2023-02-18T09:48:46;101351.16;;;10.93;75.99
43125;BME280;49182;50.788;7.318;2023-02-18T09:51:13;101292.41;;;10.57;76.20
43125;BME280;49182;50.788;7.318;2023-02-18T09:53:43;101346.97;;;10.91;76.93
43125;BME280;49182;50.788;7.318;2023-02-18T09:56:11;101343.13;;;10.95;77.26
43125;BME280;49182;50.788;7.318;2023-02-18T09:58:39;101337.72;;;10.85;77.98
43125;BME280;49182;50.788;7.318;2023-02-18T10:01:13;101330.66;;;10.86;78.01
43125;BME280;49182;50.788;7.318;2023-02-18T10:03:41;101338.09;;;10.92;77.42
43125;BME280;49182;50.788;7.318;2023-02-18T10:06:11;101322.25;;;10.92;77.77
43125;BME280;49182;50.788;7.318;2023-02-18T10:08:44;101323.91;;;10.93;76.74
43125;BME280;49182;50.788;7.318;2023-02-18T10:11:14;101322.47;;;11.00;76.96
43125;BME280;49182;50.788;7.318;2023-02-18T10:13:42;101297.88;;;11.11;76.56
43125;BME280;49182;50.788;7.318;2023-02-18T10:16:15;101310.72;;;11.15;75.70
43125;BME280;49182;50.788;7.318;2023-02-18T10:18:45;101300.03;;;11.17;75.27
43125;BME280;49182;50.788;7.318;2023-02-18T10:21:15;101299.41;;;11.02;74.23
43125;BME280;49182;50.788;7.318;2023-02-18T10:23:52;101297.50;;;11.04;75.14
43125;BME280;49182;50.788;7.318;2023-02-18T10:26:20;101296.16;;;10.99;74.75
43125;BME280;49182;50.788;7.318;2023-02-18T10:28:47;101301.81;;;11.05;74.66
43125;BME280;49182;50.788;7.318;2023-02-18T10:31:17;101311.41;;;11.06;74.70
43125;BME280;49182;50.788;7.318;2023-02-18T10:33:46;101309.25;;;11.11;74.11
43125;BME280;49182;50.788;7.318;2023-02-18T10:36:22;101277.19;;;10.93;74.73
43125;BME280;49182;50.788;7.318;2023-02-18T10:39:01;101293.19;;;11.03;73.63
43125;BME280;49182;50.788;7.318;2023-02-18T10:41:38;101291.97;;;11.07;74.26
43125;BME280;49182;50.788;7.318;2023-02-18T10:44:09;101290.66;;;11.02;76.91
43125;BME280;49182;50.788;7.318;2023-02-18T10:46:42;101297.13;;;11.09;77.55
43125;BME280;49182;50.788;7.318;2023-02-18T10:49:28;101291.00;;;11.08;76.58
43125;BME280;49182;50.788;7.318;2023-02-18T10:52:02;101301.47;;;11.10;78.04
43125;BME280;49182;50.788;7.318;2023-02-18T10:54:48;101268.91;;;10.87;79.50
43125;BME280;49182;50.788;7.318;2023-02-18T10:57:17;101286.44;;;10.99;79.40
43125;BME280;49182;50.788;7.318;2023-02-18T10:59:54;101306.13;;;10.95;80.93
43125;BME280;49182;50.788;7.318;2023-02-18T11:02:23;101293.19;;;10.92;81.28
43125;BME280;49182;50.788;7.318;2023-02-18T11:04:51;101292.34;;;10.91;80.40
43125;BME280;49182;50.788;7.318;2023-02-18T11:07:20;101291.97;;;10.85;81.60
43125;BME280;49182;50.788;7.318;2023-02-18T11:09:51;101310.56;;;10.83;79.75
43125;BME280;49182;50.788;7.318;2023-02-18T11:12:22;101296.31;;;10.86;79.61
43125;BME280;49182;50.788;7.318;2023-02-18T11:15:04;101301.13;;;10.92;80.98
43125;BME280;49182;50.788;7.318;2023-02-18T11:17:32;101307.09;;;10.83;81.24
43125;BME280;49182;50.788;7.318;2023-02-18T11:20:00;101293.28;;;10.79;81.79
43125;BME280;49182;50.788;7.318;2023-02-18T11:22:29;101286.56;;;10.75;81.05
43125;BME280;49182;50.788;7.318;2023-02-18T11:24:59;101309.84;;;10.81;82.41
43125;BME280;49182;50.788;7.318;2023-02-18T11:27:30;101328.09;;;10.73;84.73
43125;BME280;49182;50.788;7.318;2023-02-18T11:30:03;101327.94;;;10.64;87.81
43125;BME280;49182;50.788;7.318;2023-02-18T11:32:33;101328.78;;;10.64;88.45
43125;BME280;49182;50.788;7.318;2023-02-18T11:35:01;101329.75;;;10.63;88.90
43125;BME280;49182;50.788;7.318;2023-02-18T11:37:31;101328.31;;;10.59;89.38
43125;BME280;49182;50.788;7.318;2023-02-18T11:39:59;101331.53;;;10.63;90.05
43125;BME280;49182;50.788;7.318;2023-02-18T11:42:26;101317.25;;;10.54;91.05
43125;BME280;49182;50.788;7.318;2023-02-18T11:44:54;101311.25;;;10.52;91.16
43125;BME280;49182;50.788;7.318;2023-02-18T11:47:25;101309.19;;;10.55;91.79
43125;BME280;49182;50.788;7.318;2023-02-18T11:52:43;101307.63;;;10.42;92.16
43125;BME280;49182;50.788;7.318;2023-02-18T11:55:17;101314.63;;;10.54;93.93
43125;BME280;49182;50.788;7.318;2023-02-18T11:57:49;101311.13;;;10.53;93.10
43125;BME280;49182;50.788;7.318;2023-02-18T12:00:21;101306.44;;;10.57;94.39
43125;BME280;49182;50.788;7.318;2023-02-18T12:02:50;101305.38;;;10.48;95.62
43125;BME280;49182;50.788;7.318;2023-02-18T12:05:20;101284.06;;;10.28;96.62
43125;BME280;49182;50.788;7.318;2023-02-18T12:07:50;101310.66;;;10.48;97.32
43125;BME280;49182;50.788;7.318;2023-02-18T12:10:25;101311.84;;;10.55;97.18
43125;BME280;49182;50.788;7.318;2023-02-18T12:12:59;101307.06;;;10.61;96.85
43125;BME280;49182;50.788;7.318;2023-02-18T12:15:38;101257.91;;;10.25;97.46
43125;BME280;49182;50.788;7.318;2023-02-18T12:18:36;101306.81;;;10.64;96.73
43125;BME280;49182;50.788;7.318;2023-02-18T12:21:17;101299.84;;;10.63;96.68
43125;BME280;49182;50.788;7.318;2023-02-18T12:23:57;101305.84;;;10.53;98.20
43125;BME280;49182;50.788;7.318;2023-02-18T12:26:28;101300.19;;;10.47;98.68
43125;BME280;49182;50.788;7.318;2023-02-18T12:29:31;101303.31;;;10.41;100.00
43125;BME280;49182;50.788;7.318;2023-02-18T12:32:12;101313.03;;;10.40;100.00
43125;BME280;49182;50.788;7.318;2023-02-18T12:34:56;101286.59;;;10.29;100.00
43125;BME280;49182;50.788;7.318;2023-02-18T12:37:59;101309.81;;;10.48;100.00
43125;BME280;49182;50.788;7.318;2023-02-18T12:40:42;101304.03;;;10.43;100.00
43125;BME280;49182;50.788;7.318;2023-02-18T12:43:21;101298.75;;;10.43;100.00
43125;BME280;49182;50.788;7.318;2023-02-18T12:46:13;101309.53;;;10.40;100.00
43125;BME280;49182;50.788;7.318;2023-02-18T12:48:51;101284.34;;;10.36;100.00
43125;BME280;49182;50.788;7.318;2023-02-18T12:51:32;101296.97;;;10.54;100.00
43125;BME280;49182;50.788;7.318;2023-02-18T12:54:20;101293.59;;;10.41;100.00
43125;BME280;49182;50.788;7.318;2023-02-18T12:57:09;101303.22;;;10.53;100.00
43125;BME280;49182;50.788;7.318;2023-02-18T13:02:48;101299.63;;;10.54;100.00
43125;BME280;49182;50.788;7.318;2023-02-18T13:05:27;101305.38;;;10.60;100.00
43125;BME280;49182;50.788;7.318;2023-02-18T13:08:09;101307.66;;;10.53;100.00
43125;BME280;49182;50.788;7.318;2023-02-18T13:10:53;101292.03;;;10.50;100.00
43125;BME280;49182;50.788;7.318;2023-02-18T13:13:25;101302.63;;;10.61;100.00
43125;BME280;49182;50.788;7.318;2023-02-18T13:15:58;101285.44;;;10.55;100.00